Terminal Aerodrome Forecast
Issued by NWS Detroit/Pontiac, MI

Home | Current Version | Previous Version | Text Only | Print | Product List | Glossary On
Versions: 1 2 3 4 5 6 7 8 9 10 11 12 13 14 15 16 17 18 19 20 21 22 23 24 25 26 27 28
000
FTUS43 KDTX 082103 AAA
TAFDTW
TAF AMD
KDTW 082103Z 0821/0924 27015G25KT 4SM -SHSN OVC025
      TEMPO 0821/0822 2SM -SN OVC015
     FM082300 27015G25KT P6SM -SHSN BKN030 OVC080
     FM090300 28013KT P6SM BKN035=

USA.gov is the U.S. government's official web portal to all federal, state and local government web resources and services.